Davis Junction, Illinois
Current Conditions -  °F | °C
As of 6:54 AM on Sunday 23 Nov 2014 (Local Time) from KRFD Reporting Station
Overcast Overcast  
Wind Chill: 43°   Ceiling: 2300
Heat Index: 48°   Visibility: 8mi
Dew Point: 44°   Wind: 12mph
Humidity: 86%   Direction: 170°S
Pressure: 29.72"   Gusts: NA
Location:  42.1°N, 89.09°W
Report Text: KRFD 231254Z 17010KT 8SM OVC023 09/07 A2972 RMK AO2 SLP065 T00890067
Loading
Personal Weather Stations






























Interactive Weather Map New forecast layout! Learn more

10-Day Weather Forecast

Advertisements
Track Severe Weather on mobile